sensor_id;sensor_type;location;lat;lon;timestamp;pressure;altitude;pressure_sealevel;temperature;humidity
59650;BME280;46162;57.568;25.814;2023-02-19T00:02:03;98438.31;;;-1.24;100.00
59650;BME280;46162;57.568;25.814;2023-02-19T00:04:31;98449.16;;;-1.27;100.00
59650;BME280;46162;57.568;25.814;2023-02-19T00:07:01;98461.19;;;-1.23;100.00
59650;BME280;46162;57.568;25.814;2023-02-19T00:09:30;98448.91;;;-1.24;100.00
59650;BME280;46162;57.568;25.814;2023-02-19T00:11:58;98445.56;;;-1.26;100.00
59650;BME280;46162;57.568;25.814;2023-02-19T00:14:27;98454.19;;;-1.24;100.00
59650;BME280;46162;57.568;25.814;2023-02-19T00:16:56;98478.72;;;-1.22;100.00
59650;BME280;46162;57.568;25.814;2023-02-19T00:19:24;98444.19;;;-1.20;100.00
59650;BME280;46162;57.568;25.814;2023-02-19T00:21:53;98469.84;;;-1.21;100.00
59650;BME280;46162;57.568;25.814;2023-02-19T00:24:23;98468.13;;;-1.22;100.00
59650;BME280;46162;57.568;25.814;2023-02-19T00:26:52;98467.44;;;-1.24;100.00
59650;BME280;46162;57.568;25.814;2023-02-19T00:29:21;98480.66;;;-1.24;100.00
59650;BME280;46162;57.568;25.814;2023-02-19T00:31:51;98480.66;;;-1.24;100.00
59650;BME280;46162;57.568;25.814;2023-02-19T00:34:19;98475.53;;;-1.25;100.00
59650;BME280;46162;57.568;25.814;2023-02-19T00:36:48;98489.72;;;-1.26;100.00
59650;BME280;46162;57.568;25.814;2023-02-19T00:39:17;98482.75;;;-1.27;100.00
59650;BME280;46162;57.568;25.814;2023-02-19T00:41:49;98474.94;;;-1.29;100.00
59650;BME280;46162;57.568;25.814;2023-02-19T00:44:17;98483.72;;;-1.28;100.00
59650;BME280;46162;57.568;25.814;2023-02-19T00:46:47;98487.22;;;-1.28;100.00
59650;BME280;46162;57.568;25.814;2023-02-19T00:49:18;98484.69;;;-1.30;100.00
59650;BME280;46162;57.568;25.814;2023-02-19T00:51:48;98481.31;;;-1.32;100.00
59650;BME280;46162;57.568;25.814;2023-02-19T00:54:20;98498.06;;;-1.31;100.00
59650;BME280;46162;57.568;25.814;2023-02-19T00:56:51;98493.00;;;-1.34;100.00
59650;BME280;46162;57.568;25.814;2023-02-19T00:59:19;98496.66;;;-1.35;100.00
59650;BME280;46162;57.568;25.814;2023-02-19T01:01:48;98503.75;;;-1.36;100.00
59650;BME280;46162;57.568;25.814;2023-02-19T01:04:17;98497.59;;;-1.36;100.00
59650;BME280;46162;57.568;25.814;2023-02-19T01:06:45;98506.25;;;-1.34;100.00
59650;BME280;46162;57.568;25.814;2023-02-19T01:09:15;98506.53;;;-1.37;100.00
59650;BME280;46162;57.568;25.814;2023-02-19T01:11:43;98513.63;;;-1.38;100.00
59650;BME280;46162;57.568;25.814;2023-02-19T01:14:14;98513.75;;;-1.39;100.00
59650;BME280;46162;57.568;25.814;2023-02-19T01:16:42;98515.56;;;-1.40;100.00
59650;BME280;46162;57.568;25.814;2023-02-19T01:19:11;98509.69;;;-1.43;100.00
59650;BME280;46162;57.568;25.814;2023-02-19T01:21:40;98511.47;;;-1.44;100.00
59650;BME280;46162;57.568;25.814;2023-02-19T01:24:09;98512.47;;;-1.45;100.00
59650;BME280;46162;57.568;25.814;2023-02-19T01:26:38;98528.47;;;-1.46;100.00
59650;BME280;46162;57.568;25.814;2023-02-19T01:29:07;98520.41;;;-1.45;100.00
59650;BME280;46162;57.568;25.814;2023-02-19T01:31:38;98527.50;;;-1.45;100.00
59650;BME280;46162;57.568;25.814;2023-02-19T01:34:09;98511.47;;;-1.44;100.00
59650;BME280;46162;57.568;25.814;2023-02-19T01:36:39;98522.06;;;-1.44;100.00
59650;BME280;46162;57.568;25.814;2023-02-19T01:39:09;98518.59;;;-1.44;100.00
59650;BME280;46162;57.568;25.814;2023-02-19T01:41:40;98526.41;;;-1.43;100.00
59650;BME280;46162;57.568;25.814;2023-02-19T01:47:15;98527.38;;;-1.44;100.00
59650;BME280;46162;57.568;25.814;2023-02-19T01:49:47;98526.53;;;-1.44;100.00
59650;BME280;46162;57.568;25.814;2023-02-19T01:52:21;98533.53;;;-1.43;100.00
59650;BME280;46162;57.568;25.814;2023-02-19T01:54:52;98528.22;;;-1.43;100.00
59650;BME280;46162;57.568;25.814;2023-02-19T01:57:24;98539.88;;;-1.46;100.00
59650;BME280;46162;57.568;25.814;2023-02-19T01:59:55;98533.63;;;-1.45;100.00
59650;BME280;46162;57.568;25.814;2023-02-19T02:02:29;98538.34;;;-1.48;100.00
59650;BME280;46162;57.568;25.814;2023-02-19T02:04:58;98534.00;;;-1.49;100.00
59650;BME280;46162;57.568;25.814;2023-02-19T02:07:27;98536.78;;;-1.51;100.00
59650;BME280;46162;57.568;25.814;2023-02-19T02:10:13;98544.88;;;-1.53;100.00
59650;BME280;46162;57.568;25.814;2023-02-19T02:12:48;98536.22;;;-1.55;100.00
59650;BME280;46162;57.568;25.814;2023-02-19T02:15:18;98543.31;;;-1.55;100.00
59650;BME280;46162;57.568;25.814;2023-02-19T02:17:54;98539.13;;;-1.58;100.00
59650;BME280;46162;57.568;25.814;2023-02-19T02:20:33;98548.72;;;-1.57;100.00
59650;BME280;46162;57.568;25.814;2023-02-19T02:23:09;98544.66;;;-1.61;100.00
59650;BME280;46162;57.568;25.814;2023-02-19T02:26:06;98555.22;;;-1.61;100.00
59650;BME280;46162;57.568;25.814;2023-02-19T02:28:57;98560.53;;;-1.61;100.00
59650;BME280;46162;57.568;25.814;2023-02-19T02:31:38;98571.25;;;-1.62;100.00
59650;BME280;46162;57.568;25.814;2023-02-19T02:34:12;98562.47;;;-1.63;100.00
59650;BME280;46162;57.568;25.814;2023-02-19T02:36:44;98573.91;;;-1.62;100.00
59650;BME280;46162;57.568;25.814;2023-02-19T02:39:18;98579.44;;;-1.65;100.00
59650;BME280;46162;57.568;25.814;2023-02-19T02:41:49;98568.25;;;-1.69;100.00
59650;BME280;46162;57.568;25.814;2023-02-19T02:44:44;98574.53;;;-1.70;100.00
59650;BME280;46162;57.568;25.814;2023-02-19T02:47:42;98570.91;;;-1.69;100.00
59650;BME280;46162;57.568;25.814;2023-02-19T02:50:16;98580.53;;;-1.68;100.00
59650;BME280;46162;57.568;25.814;2023-02-19T02:52:48;98577.28;;;-1.71;100.00
59650;BME280;46162;57.568;25.814;2023-02-19T02:55:39;98577.19;;;-1.70;100.00
59650;BME280;46162;57.568;25.814;2023-02-19T02:58:10;98584.97;;;-1.68;100.00
59650;BME280;46162;57.568;25.814;2023-02-19T03:00:42;98578.84;;;-1.69;100.00
59650;BME280;46162;57.568;25.814;2023-02-19T03:03:31;98585.94;;;-1.69;100.00
59650;BME280;46162;57.568;25.814;2023-02-19T03:06:04;98583.41;;;-1.71;100.00
59650;BME280;46162;57.568;25.814;2023-02-19T03:08:36;98581.75;;;-1.72;100.00
59650;BME280;46162;57.568;25.814;2023-02-19T03:11:09;98576.72;;;-1.75;100.00
59650;BME280;46162;57.568;25.814;2023-02-19T03:14:03;98570.44;;;-1.74;100.00
59650;BME280;46162;57.568;25.814;2023-02-19T03:16:57;98577.81;;;-1.78;100.00
59650;BME280;46162;57.568;25.814;2023-02-19T03:19:49;98591.97;;;-1.79;100.00
59650;BME280;46162;57.568;25.814;2023-02-19T03:22:21;98588.50;;;-1.79;100.00
59650;BME280;46162;57.568;25.814;2023-02-19T03:24:53;98593.78;;;-1.79;100.00
59650;BME280;46162;57.568;25.814;2023-02-19T03:27:42;98592.13;;;-1.80;100.00
59650;BME280;46162;57.568;25.814;2023-02-19T03:30:16;98590.31;;;-1.80;100.00
59650;BME280;46162;57.568;25.814;2023-02-19T03:32:48;98593.91;;;-1.81;100.00
59650;BME280;46162;57.568;25.814;2023-02-19T03:35:23;98586.69;;;-1.79;100.00
59650;BME280;46162;57.568;25.814;2023-02-19T03:37:59;98595.47;;;-1.78;100.00
59650;BME280;46162;57.568;25.814;2023-02-19T03:40:34;98595.47;;;-1.78;100.00
59650;BME280;46162;57.568;25.814;2023-02-19T03:43:15;98591.16;;;-1.79;100.00
59650;BME280;46162;57.568;25.814;2023-02-19T03:45:52;98602.44;;;-1.77;100.00
59650;BME280;46162;57.568;25.814;2023-02-19T03:48:29;98601.63;;;-1.78;100.00
59650;BME280;46162;57.568;25.814;2023-02-19T03:51:26;98601.47;;;-1.76;100.00
59650;BME280;46162;57.568;25.814;2023-02-19T03:54:05;98609.56;;;-1.78;100.00
59650;BME280;46162;57.568;25.814;2023-02-19T03:56:42;98610.50;;;-1.79;100.00
59650;BME280;46162;57.568;25.814;2023-02-19T03:59:16;98603.53;;;-1.80;100.00
59650;BME280;46162;57.568;25.814;2023-02-19T04:01:48;98624.81;;;-1.81;100.00
59650;BME280;46162;57.568;25.814;2023-02-19T04:04:21;98622.16;;;-1.81;100.00
59650;BME280;46162;57.568;25.814;2023-02-19T04:06:55;98622.16;;;-1.81;100.00
59650;BME280;46162;57.568;25.814;2023-02-19T04:09:32;98622.31;;;-1.83;100.00
59650;BME280;46162;57.568;25.814;2023-02-19T04:12:10;98618.22;;;-1.87;100.00
59650;BME280;46162;57.568;25.814;2023-02-19T04:14:43;98612.22;;;-1.89;100.00
59650;BME280;46162;57.568;25.814;2023-02-19T04:17:23;98628.91;;;-1.88;100.00
59650;BME280;46162;57.568;25.814;2023-02-19T04:19:56;98638.09;;;-1.92;100.00
59650;BME280;46162;57.568;25.814;2023-02-19T04:22:28;98638.31;;;-1.96;100.00
59650;BME280;46162;57.568;25.814;2023-02-19T04:24:57;98640.25;;;-1.98;100.00
59650;BME280;46162;57.568;25.814;2023-02-19T04:27:31;98633.41;;;-2.00;100.00
59650;BME280;46162;57.568;25.814;2023-02-19T04:30:03;98637.72;;;-1.99;100.00
59650;BME280;46162;57.568;25.814;2023-02-19T04:32:35;98640.47;;;-2.01;100.00
59650;BME280;46162;57.568;25.814;2023-02-19T04:35:08;98643.84;;;-1.99;100.00
59650;BME280;46162;57.568;25.814;2023-02-19T04:37:38;98652.63;;;-1.98;100.00
59650;BME280;46162;57.568;25.814;2023-02-19T04:40:08;98647.22;;;-1.97;100.00
59650;BME280;46162;57.568;25.814;2023-02-19T04:42:37;98647.09;;;-1.95;100.00
59650;BME280;46162;57.568;25.814;2023-02-19T04:45:06;98656.59;;;-1.92;100.00
59650;BME280;46162;57.568;25.814;2023-02-19T04:47:35;98652.97;;;-1.91;100.00
59650;BME280;46162;57.568;25.814;2023-02-19T04:50:04;98657.44;;;-1.92;100.00
59650;BME280;46162;57.568;25.814;2023-02-19T04:52:34;98658.38;;;-1.93;100.00
59650;BME280;46162;57.568;25.814;2023-02-19T04:55:08;98663.66;;;-1.93;100.00
59650;BME280;46162;57.568;25.814;2023-02-19T04:57:37;98652.00;;;-1.90;100.00
59650;BME280;46162;57.568;25.814;2023-02-19T05:00:07;98653.69;;;-1.89;100.00
59650;BME280;46162;57.568;25.814;2023-02-19T05:02:41;98643.69;;;-1.86;100.00
59650;BME280;46162;57.568;25.814;2023-02-19T05:05:10;98651.78;;;-1.87;100.00
59650;BME280;46162;57.568;25.814;2023-02-19T05:07:39;98647.91;;;-1.83;100.00
59650;BME280;46162;57.568;25.814;2023-02-19T05:10:09;98667.38;;;-1.84;100.00
59650;BME280;46162;57.568;25.814;2023-02-19T05:12:38;98653.44;;;-1.86;100.00
59650;BME280;46162;57.568;25.814;2023-02-19T05:15:07;98641.41;;;-1.90;100.00
59650;BME280;46162;57.568;25.814;2023-02-19T05:17:36;98654.66;;;-1.90;100.00
59650;BME280;46162;57.568;25.814;2023-02-19T05:20:05;98660.91;;;-1.91;100.00
59650;BME280;46162;57.568;25.814;2023-02-19T05:22:37;98653.59;;;-1.99;100.00
59650;BME280;46162;57.568;25.814;2023-02-19T05:25:06;98662.97;;;-1.95;100.00
59650;BME280;46162;57.568;25.814;2023-02-19T05:27:36;98653.34;;;-1.96;100.00
59650;BME280;46162;57.568;25.814;2023-02-19T05:30:06;98655.03;;;-1.95;100.00
59650;BME280;46162;57.568;25.814;2023-02-19T05:32:37;98654.56;;;-2.00;100.00
59650;BME280;46162;57.568;25.814;2023-02-19T05:35:06;98655.41;;;-2.00;100.00
59650;BME280;46162;57.568;25.814;2023-02-19T05:37:34;98658.88;;;-1.99;100.00
59650;BME280;46162;57.568;25.814;2023-02-19T05:40:06;98652.50;;;-1.97;100.00
59650;BME280;46162;57.568;25.814;2023-02-19T05:42:36;98673.66;;;-1.97;100.00
59650;BME280;46162;57.568;25.814;2023-02-19T05:45:06;98672.94;;;-1.99;100.00
59650;BME280;46162;57.568;25.814;2023-02-19T05:47:35;98677.38;;;-1.99;100.00
59650;BME280;46162;57.568;25.814;2023-02-19T05:50:07;98674.84;;;-2.01;100.00
59650;BME280;46162;57.568;25.814;2023-02-19T05:52:35;98667.06;;;-2.02;100.00
59650;BME280;46162;57.568;25.814;2023-02-19T05:55:05;98681.94;;;-2.01;100.00
59650;BME280;46162;57.568;25.814;2023-02-19T05:57:40;98684.75;;;-2.03;100.00
59650;BME280;46162;57.568;25.814;2023-02-19T06:00:14;98679.44;;;-2.03;100.00
59650;BME280;46162;57.568;25.814;2023-02-19T06:02:45;98683.41;;;-2.08;100.00
59650;BME280;46162;57.568;25.814;2023-02-19T06:05:14;98699.41;;;-2.10;100.00
59650;BME280;46162;57.568;25.814;2023-02-19T06:07:45;98682.91;;;-2.13;100.00
59650;BME280;46162;57.568;25.814;2023-02-19T06:10:17;98695.41;;;-2.16;100.00
59650;BME280;46162;57.568;25.814;2023-02-19T06:12:51;98703.34;;;-2.16;100.00
59650;BME280;46162;57.568;25.814;2023-02-19T06:15:21;98696.38;;;-2.17;100.00
59650;BME280;46162;57.568;25.814;2023-02-19T06:17:50;98702.88;;;-2.21;100.00
59650;BME280;46162;57.568;25.814;2023-02-19T06:20:19;98704.69;;;-2.21;100.00
59650;BME280;46162;57.568;25.814;2023-02-19T06:22:49;98695.28;;;-2.25;100.00
59650;BME280;46162;57.568;25.814;2023-02-19T06:25:18;98691.22;;;-2.29;100.00
59650;BME280;46162;57.568;25.814;2023-02-19T06:27:48;98700.97;;;-2.30;100.00
59650;BME280;46162;57.568;25.814;2023-02-19T06:30:22;98698.19;;;-2.28;100.00
59650;BME280;46162;57.568;25.814;2023-02-19T06:32:51;98708.66;;;-2.27;100.00
59650;BME280;46162;57.568;25.814;2023-02-19T06:35:21;98698.91;;;-2.26;100.00
59650;BME280;46162;57.568;25.814;2023-02-19T06:37:50;98698.66;;;-2.23;100.00
59650;BME280;46162;57.568;25.814;2023-02-19T06:40:19;98704.78;;;-2.23;100.00
59650;BME280;46162;57.568;25.814;2023-02-19T06:42:49;98703.94;;;-2.23;100.00
59650;BME280;46162;57.568;25.814;2023-02-19T06:45:18;98702.53;;;-2.27;100.00
59650;BME280;46162;57.568;25.814;2023-02-19T06:47:50;98700.81;;;-2.28;100.00
59650;BME280;46162;57.568;25.814;2023-02-19T06:50:19;98709.59;;;-2.28;100.00
59650;BME280;46162;57.568;25.814;2023-02-19T06:52:47;98707.81;;;-2.27;100.00
59650;BME280;46162;57.568;25.814;2023-02-19T06:55:16;98700.81;;;-2.28;100.00
59650;BME280;46162;57.568;25.814;2023-02-19T06:57:45;98707.81;;;-2.27;100.00
59650;BME280;46162;57.568;25.814;2023-02-19T07:00:16;98702.53;;;-2.27;100.00
59650;BME280;46162;57.568;25.814;2023-02-19T07:02:48;98713.09;;;-2.27;100.00
59650;BME280;46162;57.568;25.814;2023-02-19T07:05:22;98710.31;;;-2.26;100.00
59650;BME280;46162;57.568;25.814;2023-02-19T07:07:51;98704.19;;;-2.26;100.00
59650;BME280;46162;57.568;25.814;2023-02-19T07:10:20;98714.03;;;-2.28;100.00
59650;BME280;46162;57.568;25.814;2023-02-19T07:12:49;98710.56;;;-2.29;100.00
59650;BME280;46162;57.568;25.814;2023-02-19T07:15:19;98714.88;;;-2.28;100.00
59650;BME280;46162;57.568;25.814;2023-02-19T07:17:48;98718.50;;;-2.29;100.00
59650;BME280;46162;57.568;25.814;2023-02-19T07:20:17;98724.59;;;-2.28;100.00
59650;BME280;46162;57.568;25.814;2023-02-19T07:22:45;98719.22;;;-2.27;100.00
59650;BME280;46162;57.568;25.814;2023-02-19T07:25:14;98720.31;;;-2.29;100.00
59650;BME280;46162;57.568;25.814;2023-02-19T07:27:43;98714.19;;;-2.30;100.00
59650;BME280;46162;57.568;25.814;2023-02-19T07:30:12;98728.97;;;-2.27;100.00
59650;BME280;46162;57.568;25.814;2023-02-19T07:32:42;98721.13;;;-2.29;100.00
59650;BME280;46162;57.568;25.814;2023-02-19T07:35:11;98733.28;;;-2.26;100.00
59650;BME280;46162;57.568;25.814;2023-02-19T07:37:40;98723.78;;;-2.29;100.00
59650;BME280;46162;57.568;25.814;2023-02-19T07:40:09;98722.69;;;-2.26;100.00
59650;BME280;46162;57.568;25.814;2023-02-19T07:42:38;98730.16;;;-2.31;100.00
59650;BME280;46162;57.568;25.814;2023-02-19T07:45:07;98732.53;;;-2.28;100.00
59650;BME280;46162;57.568;25.814;2023-02-19T07:47:36;98737.09;;;-2.30;100.00
59650;BME280;46162;57.568;25.814;2023-02-19T07:50:09;98741.44;;;-2.29;100.00
59650;BME280;46162;57.568;25.814;2023-02-19T07:52:40;98742.16;;;-2.27;100.00
59650;BME280;46162;57.568;25.814;2023-02-19T07:55:09;98749.84;;;-2.24;100.00
59650;BME280;46162;57.568;25.814;2023-02-19T07:57:38;98742.03;;;-2.26;100.00
59650;BME280;46162;57.568;25.814;2023-02-19T08:00:08;98742.53;;;-2.21;100.00
59650;BME280;46162;57.568;25.814;2023-02-19T08:02:40;98739.78;;;-2.19;100.00
59650;BME280;46162;57.568;25.814;2023-02-19T08:05:36;98736.88;;;-2.16;100.00
59650;BME280;46162;57.568;25.814;2023-02-19T08:08:06;98748.44;;;-2.17;100.00
59650;BME280;46162;57.568;25.814;2023-02-19T08:10:35;98740.97;;;-2.23;100.00
59650;BME280;46162;57.568;25.814;2023-02-19T08:13:22;98744.56;;;-2.24;100.00
59650;BME280;46162;57.568;25.814;2023-02-19T08:15:53;98743.75;;;-2.25;100.00
59650;BME280;46162;57.568;25.814;2023-02-19T08:18:45;98750.59;;;-2.22;100.00
59650;BME280;46162;57.568;25.814;2023-02-19T08:21:17;98744.31;;;-2.21;100.00
59650;BME280;46162;57.568;25.814;2023-02-19T08:23:47;98745.50;;;-2.25;100.00
59650;BME280;46162;57.568;25.814;2023-02-19T08:26:17;98744.44;;;-2.23;100.00
59650;BME280;46162;57.568;25.814;2023-02-19T08:28:47;98753.22;;;-2.22;100.00
59650;BME280;46162;57.568;25.814;2023-02-19T08:31:15;98746.50;;;-2.26;100.00
59650;BME280;46162;57.568;25.814;2023-02-19T08:33:44;98752.50;;;-2.24;100.00
59650;BME280;46162;57.568;25.814;2023-02-19T08:36:13;98755.25;;;-2.26;100.00
59650;BME280;46162;57.568;25.814;2023-02-19T08:38:43;98740.84;;;-2.22;100.00
59650;BME280;46162;57.568;25.814;2023-02-19T08:41:12;98754.91;;;-2.21;100.00
59650;BME280;46162;57.568;25.814;2023-02-19T08:43:42;98753.09;;;-2.21;100.00
59650;BME280;46162;57.568;25.814;2023-02-19T08:46:10;98759.09;;;-2.19;100.00
59650;BME280;46162;57.568;25.814;2023-02-19T08:48:40;98756.22;;;-2.16;100.00
59650;BME280;46162;57.568;25.814;2023-02-19T08:51:09;98763.31;;;-2.16;100.00
59650;BME280;46162;57.568;25.814;2023-02-19T08:53:39;98763.22;;;-2.14;100.00
59650;BME280;46162;57.568;25.814;2023-02-19T08:56:12;98750.81;;;-2.14;100.00
59650;BME280;46162;57.568;25.814;2023-02-19T08:58:41;98757.69;;;-2.11;100.00
59650;BME280;46162;57.568;25.814;2023-02-19T09:01:11;98767.16;;;-2.09;100.00
59650;BME280;46162;57.568;25.814;2023-02-19T09:03:41;98765.03;;;-2.15;100.00
59650;BME280;46162;57.568;25.814;2023-02-19T09:06:13;98758.88;;;-2.16;100.00
59650;BME280;46162;57.568;25.814;2023-02-19T09:08:42;98762.84;;;-2.10;100.00
59650;BME280;46162;57.568;25.814;2023-02-19T09:11:12;98773.28;;;-2.08;100.00
59650;BME280;46162;57.568;25.814;2023-02-19T09:13:42;98762.13;;;-2.12;100.00
59650;BME280;46162;57.568;25.814;2023-02-19T09:16:11;98761.16;;;-2.11;100.00
59650;BME280;46162;57.568;25.814;2023-02-19T09:18:40;98766.19;;;-2.08;100.00
59650;BME280;46162;57.568;25.814;2023-02-19T09:21:08;98767.91;;;-2.07;100.00
59650;BME280;46162;57.568;25.814;2023-02-19T09:23:37;98768.63;;;-2.05;100.00
59650;BME280;46162;57.568;25.814;2023-02-19T09:26:06;98764.75;;;-2.01;100.00
59650;BME280;46162;57.568;25.814;2023-02-19T09:28:37;98778.84;;;-2.00;100.00
59650;BME280;46162;57.568;25.814;2023-02-19T09:31:09;98763.00;;;-2.00;100.00
59650;BME280;46162;57.568;25.814;2023-02-19T09:33:41;98756.00;;;-2.01;100.00
59650;BME280;46162;57.568;25.814;2023-02-19T09:36:10;98762.13;;;-2.01;100.00
59650;BME280;46162;57.568;25.814;2023-02-19T09:38:39;98768.38;;;-2.02;100.00
59650;BME280;46162;57.568;25.814;2023-02-19T09:41:13;98773.31;;;-1.97;100.00
59650;BME280;46162;57.568;25.814;2023-02-19T09:43:44;98766.31;;;-1.98;100.00
59650;BME280;46162;57.568;25.814;2023-02-19T09:46:22;98764.31;;;-1.95;100.00
59650;BME280;46162;57.568;25.814;2023-02-19T09:48:55;98767.31;;;-1.88;100.00
59650;BME280;46162;57.568;25.814;2023-02-19T09:51:27;98774.63;;;-1.91;100.00
59650;BME280;46162;57.568;25.814;2023-02-19T09:53:56;98775.94;;;-1.86;100.00
59650;BME280;46162;57.568;25.814;2023-02-19T09:56:26;98775.72;;;-1.83;100.00
59650;BME280;46162;57.568;25.814;2023-02-19T09:58:58;98763.69;;;-1.87;100.00
59650;BME280;46162;57.568;25.814;2023-02-19T10:01:31;98770.44;;;-1.83;100.00
59650;BME280;46162;57.568;25.814;2023-02-19T10:04:01;98779.94;;;-1.80;100.00
59650;BME280;46162;57.568;25.814;2023-02-19T10:06:31;98772.84;;;-1.80;100.00
59650;BME280;46162;57.568;25.814;2023-02-19T10:09:13;98762.97;;;-1.78;100.00
59650;BME280;46162;57.568;25.814;2023-02-19T10:11:47;98762.13;;;-1.78;100.00
59650;BME280;46162;57.568;25.814;2023-02-19T10:14:22;98761.66;;;-1.72;100.00
59650;BME280;46162;57.568;25.814;2023-02-19T10:16:57;98766.69;;;-1.69;100.00
59650;BME280;46162;57.568;25.814;2023-02-19T10:19:26;98768.13;;;-1.65;100.00
59650;BME280;46162;57.568;25.814;2023-02-19T10:21:56;98764.66;;;-1.65;100.00
59650;BME280;46162;57.568;25.814;2023-02-19T10:24:26;98770.78;;;-1.65;100.00
59650;BME280;46162;57.568;25.814;2023-02-19T10:26:56;98759.22;;;-1.64;100.00
59650;BME280;46162;57.568;25.814;2023-02-19T10:29:26;98765.50;;;-1.65;100.00
59650;BME280;46162;57.568;25.814;2023-02-19T10:32:12;98767.63;;;-1.59;100.00
59650;BME280;46162;57.568;25.814;2023-02-19T10:34:43;98764.28;;;-1.61;100.00
59650;BME280;46162;57.568;25.814;2023-02-19T10:37:16;98760.94;;;-1.63;100.00
59650;BME280;46162;57.568;25.814;2023-02-19T10:39:47;98749.72;;;-1.55;100.00
59650;BME280;46162;57.568;25.814;2023-02-19T10:42:19;98766.91;;;-1.61;100.00
59650;BME280;46162;57.568;25.814;2023-02-19T10:44:52;98767.63;;;-1.59;100.00
59650;BME280;46162;57.568;25.814;2023-02-19T10:47:26;98774.50;;;-1.56;100.00
59650;BME280;46162;57.568;25.814;2023-02-19T10:49:57;98766.81;;;-1.59;100.00
59650;BME280;46162;57.568;25.814;2023-02-19T10:52:35;98776.66;;;-1.61;100.00
59650;BME280;46162;57.568;25.814;2023-02-19T10:55:15;98767.78;;;-1.71;100.00
59650;BME280;46162;57.568;25.814;2023-02-19T10:57:44;98762.22;;;-1.68;100.00
59650;BME280;46162;57.568;25.814;2023-02-19T11:00:22;98764.19;;;-1.70;100.00
59650;BME280;46162;57.568;25.814;2023-02-19T11:03:12;98775.34;;;-1.67;100.00
59650;BME280;46162;57.568;25.814;2023-02-19T11:05:50;98768.13;;;-1.65;100.00
59650;BME280;46162;57.568;25.814;2023-02-19T11:08:23;98779.66;;;-1.66;100.00
59650;BME280;46162;57.568;25.814;2023-02-19T11:10:52;98780.41;;;-1.64;100.00
59650;BME280;46162;57.568;25.814;2023-02-19T11:13:25;98779.44;;;-1.63;100.00
59650;BME280;46162;57.568;25.814;2023-02-19T11:15:58;98782.78;;;-1.61;100.00
59650;BME280;46162;57.568;25.814;2023-02-19T11:18:29;98785.94;;;-1.56;100.00
59650;BME280;46162;57.568;25.814;2023-02-19T11:21:24;98781.13;;;-1.50;100.00
59650;BME280;46162;57.568;25.814;2023-02-19T11:23:55;98784.25;;;-1.45;100.00
59650;BME280;46162;57.568;25.814;2023-02-19T11:26:26;98775.31;;;-1.44;100.00
59650;BME280;46162;57.568;25.814;2023-02-19T11:28:59;98779.91;;;-1.46;100.00
59650;BME280;46162;57.568;25.814;2023-02-19T11:31:31;98782.31;;;-1.43;100.00
59650;BME280;46162;57.568;25.814;2023-02-19T11:34:27;98779.06;;;-1.47;100.00
59650;BME280;46162;57.568;25.814;2023-02-19T11:37:11;98784.25;;;-1.45;100.00
59650;BME280;46162;57.568;25.814;2023-02-19T11:39:43;98779.78;;;-1.45;100.00
59650;BME280;46162;57.568;25.814;2023-02-19T11:42:38;98788.81;;;-1.47;100.00
59650;BME280;46162;57.568;25.814;2023-02-19T11:45:23;98795.06;;;-1.48;100.00
59650;BME280;46162;57.568;25.814;2023-02-19T11:48:16;98784.25;;;-1.45;100.00
59650;BME280;46162;57.568;25.814;2023-02-19T11:51:04;98790.72;;;-1.49;100.00
59650;BME280;46162;57.568;25.814;2023-02-19T11:53:45;98786.88;;;-1.45;100.00
59650;BME280;46162;57.568;25.814;2023-02-19T11:56:22;98791.47;;;-1.47;100.00
59650;BME280;46162;57.568;25.814;2023-02-19T11:59:02;98799.16;;;-1.44;100.00
59650;BME280;46162;57.568;25.814;2023-02-19T12:02:06;98801.53;;;-1.41;100.00
59650;BME280;46162;57.568;25.814;2023-02-19T12:05:25;98787.38;;;-1.40;100.00
59650;BME280;46162;57.568;25.814;2023-02-19T12:08:24;98785.44;;;-1.38;100.00
59650;BME280;46162;57.568;25.814;2023-02-19T12:11:10;98798.41;;;-1.35;100.00
59650;BME280;46162;57.568;25.814;2023-02-19T12:13:54;98805.75;;;-1.39;100.00
59650;BME280;46162;57.568;25.814;2023-02-19T12:16:37;98790.72;;;-1.38;100.00
59650;BME280;46162;57.568;25.814;2023-02-19T12:22:24;98800.47;;;-1.39;100.00
59650;BME280;46162;57.568;25.814;2023-02-19T12:28:19;98802.00;;;-1.36;100.00
59650;BME280;46162;57.568;25.814;2023-02-19T12:31:10;98794.06;;;-1.36;100.00
59650;BME280;46162;57.568;25.814;2023-02-19T12:33:58;98801.31;;;-1.38;100.00
59650;BME280;46162;57.568;25.814;2023-02-19T12:36:36;98794.31;;;-1.39;100.00
59650;BME280;46162;57.568;25.814;2023-02-19T12:39:16;98802.16;;;-1.38;100.00
59650;BME280;46162;57.568;25.814;2023-02-19T12:41:56;98803.00;;;-1.37;100.00
59650;BME280;46162;57.568;25.814;2023-02-19T12:44:37;98809.47;;;-1.41;100.00
59650;BME280;46162;57.568;25.814;2023-02-19T12:47:13;98811.53;;;-1.45;100.00
59650;BME280;46162;57.568;25.814;2023-02-19T12:49:48;98810.72;;;-1.45;100.00
59650;BME280;46162;57.568;25.814;2023-02-19T12:52:21;98813.47;;;-1.47;100.00
59650;BME280;46162;57.568;25.814;2023-02-19T12:54:53;98821.53;;;-1.48;100.00
59650;BME280;46162;57.568;25.814;2023-02-19T12:57:30;98820.56;;;-1.47;100.00
59650;BME280;46162;57.568;25.814;2023-02-19T13:00:03;98815.38;;;-1.49;100.00
59650;BME280;46162;57.568;25.814;2023-02-19T13:02:40;98823.31;;;-1.49;100.00
59650;BME280;46162;57.568;25.814;2023-02-19T13:05:19;98820.81;;;-1.50;100.00
59650;BME280;46162;57.568;25.814;2023-02-19T13:07:56;98819.13;;;-1.52;100.00
59650;BME280;46162;57.568;25.814;2023-02-19T13:10:32;98821.53;;;-1.48;100.00
59650;BME280;46162;57.568;25.814;2023-02-19T13:13:09;98825.88;;;-1.47;100.00
59650;BME280;46162;57.568;25.814;2023-02-19T13:15:41;98819.75;;;-1.48;100.00
59650;BME280;46162;57.568;25.814;2023-02-19T13:18:15;98849.94;;;-1.50;100.00
59650;BME280;46162;57.568;25.814;2023-02-19T13:20:47;98827.69;;;-1.48;100.00
59650;BME280;46162;57.568;25.814;2023-02-19T13:23:21;98836.69;;;-1.50;100.00